createdAt,value
2024-02-11T00:02:04.872Z,16.10
2024-02-11T00:04:50.138Z,16.10
2024-02-11T00:07:38.663Z,16.10
2024-02-11T00:10:24.496Z,16.10
2024-02-11T00:13:12.138Z,16.10
2024-02-11T00:15:57.883Z,16.00
2024-02-11T00:18:43.390Z,16.00
2024-02-11T00:21:28.836Z,16.10
2024-02-11T00:24:15.019Z,16.00
2024-02-11T00:27:00.526Z,16.00
2024-02-11T00:29:45.990Z,16.00
2024-02-11T00:32:31.291Z,16.00
2024-02-11T00:35:16.572Z,16.00
2024-02-11T00:38:01.979Z,16.00
2024-02-11T00:40:47.817Z,16.00
2024-02-11T00:43:33.782Z,16.00
2024-02-11T00:46:19.589Z,16.10
2024-02-11T00:49:06.128Z,16.00
2024-02-11T00:51:51.625Z,16.00
2024-02-11T00:54:38.804Z,16.00
2024-02-11T00:57:24.064Z,16.00
2024-02-11T01:00:13.570Z,16.00
2024-02-11T01:02:59.000Z,16.00
2024-02-11T01:05:44.662Z,16.00
2024-02-11T01:08:30.571Z,16.00
2024-02-11T01:11:17.925Z,16.00
2024-02-11T01:14:03.614Z,16.00
2024-02-11T01:16:49.408Z,16.00
2024-02-11T01:19:36.819Z,16.00
2024-02-11T01:22:22.311Z,16.00
2024-02-11T01:25:07.853Z,16.00
2024-02-11T01:27:53.145Z,16.00
2024-02-11T01:30:40.106Z,16.00
2024-02-11T01:33:25.846Z,16.00
2024-02-11T01:36:13.649Z,16.00
2024-02-11T01:38:59.104Z,16.00
2024-02-11T01:41:44.131Z,16.00
2024-02-11T01:44:29.502Z,16.00
2024-02-11T01:47:14.989Z,16.00
2024-02-11T01:50:01.133Z,16.10
2024-02-11T01:52:48.030Z,16.00
2024-02-11T01:55:34.365Z,16.00
2024-02-11T01:58:20.486Z,16.00
2024-02-11T02:01:06.158Z,16.00
2024-02-11T02:03:51.487Z,16.00
2024-02-11T02:06:36.618Z,16.00
2024-02-11T02:09:21.814Z,16.00
2024-02-11T02:12:07.709Z,15.90
2024-02-11T02:14:53.557Z,15.90
2024-02-11T02:17:39.147Z,15.90
2024-02-11T02:20:24.740Z,15.90
2024-02-11T02:23:10.604Z,15.90
2024-02-11T02:25:59.481Z,15.90
2024-02-11T02:28:44.922Z,15.90
2024-02-11T02:31:30.093Z,15.90
2024-02-11T02:34:15.448Z,15.90
2024-02-11T02:37:01.119Z,15.90
2024-02-11T02:39:46.335Z,15.90
2024-02-11T02:42:31.623Z,15.90
2024-02-11T02:45:16.886Z,15.90
2024-02-11T02:48:03.287Z,15.90
2024-02-11T02:50:48.994Z,15.90
2024-02-11T02:53:34.177Z,15.90
2024-02-11T02:56:20.352Z,15.90
2024-02-11T02:59:06.962Z,15.90
2024-02-11T03:02:02.649Z,15.90
2024-02-11T03:04:48.167Z,15.90
2024-02-11T03:07:34.374Z,15.90
2024-02-11T03:10:21.912Z,15.90
2024-02-11T03:13:07.534Z,15.90
2024-02-11T03:15:52.739Z,15.90
2024-02-11T03:18:41.811Z,15.90
2024-02-11T03:21:27.498Z,15.90
2024-02-11T03:24:12.886Z,15.80
2024-02-11T03:26:58.247Z,15.80
2024-02-11T03:29:43.896Z,15.80
2024-02-11T03:32:29.031Z,15.90
2024-02-11T03:35:15.051Z,15.80
2024-02-11T03:38:00.533Z,15.80
2024-02-11T03:40:46.239Z,15.80
2024-02-11T03:43:31.593Z,15.80
2024-02-11T03:46:16.730Z,15.90
2024-02-11T03:49:05.111Z,15.80
2024-02-11T03:51:50.566Z,15.80
2024-02-11T03:54:39.613Z,15.80
2024-02-11T03:57:26.836Z,15.80
2024-02-11T04:00:20.051Z,15.80
2024-02-11T04:03:05.773Z,15.80
2024-02-11T04:05:53.308Z,15.80
2024-02-11T04:08:44.700Z,15.80
2024-02-11T04:11:30.120Z,15.80
2024-02-11T04:14:16.738Z,15.80
2024-02-11T04:17:03.750Z,15.80
2024-02-11T04:19:49.225Z,15.80
2024-02-11T04:22:34.440Z,15.80
2024-02-11T04:25:23.390Z,15.80
2024-02-11T04:28:09.342Z,15.80
2024-02-11T04:30:56.609Z,15.80
2024-02-11T04:33:42.253Z,15.80
2024-02-11T04:36:27.574Z,15.80
2024-02-11T04:39:12.840Z,15.80
2024-02-11T04:41:58.189Z,15.80
2024-02-11T04:44:43.878Z,15.80
2024-02-11T04:47:29.709Z,15.80
2024-02-11T04:50:17.395Z,15.80
2024-02-11T04:53:08.409Z,15.80
2024-02-11T04:55:55.138Z,15.80
2024-02-11T04:58:40.990Z,15.70
2024-02-11T05:01:26.630Z,15.80
2024-02-11T05:04:12.165Z,15.70
2024-02-11T05:06:57.629Z,15.80
2024-02-11T05:09:46.366Z,17.30
2024-02-11T05:12:32.054Z,15.70
2024-02-11T05:15:21.263Z,15.80
2024-02-11T05:18:07.256Z,15.70
2024-02-11T05:20:52.607Z,15.80
2024-02-11T05:23:38.328Z,15.70
2024-02-11T05:26:23.984Z,15.70
2024-02-11T05:29:11.142Z,15.70
2024-02-11T05:31:56.881Z,15.70
2024-02-11T05:34:43.182Z,15.70
2024-02-11T05:37:30.837Z,15.70
2024-02-11T05:40:16.555Z,15.70
2024-02-11T05:43:02.013Z,15.70
2024-02-11T05:45:47.641Z,15.70
2024-02-11T05:48:33.293Z,15.70
2024-02-11T05:51:18.734Z,15.70
2024-02-11T05:54:05.395Z,15.70
2024-02-11T05:56:50.498Z,15.70
2024-02-11T05:59:36.352Z,15.70
2024-02-11T06:02:22.440Z,15.70
2024-02-11T06:05:07.813Z,15.70
2024-02-11T06:07:56.811Z,15.70
2024-02-11T06:10:42.422Z,15.70
2024-02-11T06:13:27.873Z,15.70
2024-02-11T06:16:13.949Z,15.70
2024-02-11T06:18:59.653Z,15.70
2024-02-11T06:21:45.391Z,15.70
2024-02-11T06:24:31.155Z,15.70
2024-02-11T06:27:16.638Z,15.70
2024-02-11T06:30:02.806Z,15.70
2024-02-11T06:32:52.411Z,15.70
2024-02-11T06:35:38.227Z,15.70
2024-02-11T06:38:24.586Z,15.70
2024-02-11T06:41:10.201Z,15.70
2024-02-11T06:44:04.860Z,15.60
2024-02-11T06:46:50.539Z,15.70
2024-02-11T06:49:35.989Z,15.70
2024-02-11T06:52:21.377Z,15.60
2024-02-11T06:55:06.904Z,15.70
2024-02-11T06:57:52.845Z,15.60
2024-02-11T07:00:38.963Z,15.70
2024-02-11T07:03:24.750Z,15.60
2024-02-11T07:06:11.298Z,15.70
2024-02-11T07:08:56.927Z,15.60
2024-02-11T07:11:42.638Z,15.70
2024-02-11T07:14:27.807Z,15.70
2024-02-11T07:17:16.019Z,15.60
2024-02-11T07:20:01.637Z,15.60
2024-02-11T07:22:47.619Z,15.60
2024-02-11T07:25:33.368Z,15.60
2024-02-11T07:28:18.984Z,15.70
2024-02-11T07:31:04.368Z,15.60
2024-02-11T07:33:50.890Z,15.60
2024-02-11T07:36:36.405Z,15.70
2024-02-11T07:39:21.570Z,15.60
2024-02-11T07:42:07.638Z,15.60
2024-02-11T07:44:52.985Z,15.70
2024-02-11T07:47:38.957Z,15.70
2024-02-11T07:50:24.504Z,15.70
2024-02-11T07:53:10.035Z,15.70
2024-02-11T07:55:55.384Z,15.80
2024-02-11T07:58:40.663Z,15.80
2024-02-11T08:01:26.321Z,15.80
2024-02-11T08:04:12.320Z,15.80
2024-02-11T08:06:57.938Z,15.80
2024-02-11T08:09:44.254Z,15.90
2024-02-11T08:12:29.631Z,15.90
2024-02-11T08:15:15.480Z,15.90
2024-02-11T08:18:05.685Z,15.90
2024-02-11T08:20:51.533Z,15.90
2024-02-11T08:23:36.817Z,15.90
2024-02-11T08:26:23.956Z,15.90
2024-02-11T08:29:09.768Z,15.90
2024-02-11T08:31:55.416Z,16.00
2024-02-11T08:34:41.241Z,16.00
2024-02-11T08:37:26.654Z,15.90
2024-02-11T08:40:13.516Z,16.00
2024-02-11T08:42:58.959Z,16.00
2024-02-11T08:45:44.790Z,16.00
2024-02-11T08:48:30.074Z,16.10
2024-02-11T08:51:21.609Z,16.00
2024-02-11T08:54:07.869Z,16.00
2024-02-11T08:56:53.530Z,16.00
2024-02-11T08:59:42.845Z,16.10
2024-02-11T09:02:31.946Z,16.00
2024-02-11T09:05:18.125Z,16.00
2024-02-11T09:08:04.154Z,16.10
2024-02-11T09:10:49.902Z,16.10
2024-02-11T09:13:38.554Z,16.00
2024-02-11T09:16:26.777Z,16.10
2024-02-11T09:19:14.916Z,16.10
2024-02-11T09:22:00.926Z,16.10
2024-02-11T09:24:46.584Z,16.10
2024-02-11T09:27:31.965Z,16.10
2024-02-11T09:30:18.627Z,16.10
2024-02-11T09:33:04.337Z,16.10
2024-02-11T09:35:50.134Z,16.10
2024-02-11T09:38:35.624Z,16.10
2024-02-11T09:41:22.208Z,16.20
2024-02-11T09:44:08.512Z,16.10
2024-02-11T09:46:55.162Z,16.10
2024-02-11T09:49:42.439Z,16.20
2024-02-11T09:52:27.888Z,16.20
2024-02-11T09:55:13.475Z,16.10
2024-02-11T09:57:58.896Z,16.20
2024-02-11T10:00:44.236Z,16.20
2024-02-11T10:03:31.034Z,16.20
2024-02-11T10:06:18.838Z,16.20
2024-02-11T10:09:05.627Z,16.20
2024-02-11T10:11:50.822Z,16.20
2024-02-11T10:14:36.330Z,16.20
2024-02-11T10:17:22.476Z,16.20
2024-02-11T10:20:08.146Z,16.20
2024-02-11T10:22:54.161Z,16.20
2024-02-11T10:25:39.467Z,16.20
2024-02-11T10:28:26.251Z,16.20
2024-02-11T10:31:12.070Z,16.20
2024-02-11T10:33:58.763Z,16.20
2024-02-11T10:36:48.181Z,16.20
2024-02-11T10:39:37.133Z,16.20
2024-02-11T10:42:22.784Z,16.20
2024-02-11T10:45:08.532Z,16.20
2024-02-11T10:47:54.193Z,16.20
2024-02-11T10:50:39.304Z,16.20
2024-02-11T10:53:27.401Z,16.20
2024-02-11T10:56:14.474Z,16.20
2024-02-11T10:59:03.123Z,16.20
2024-02-11T11:01:49.044Z,16.20
2024-02-11T11:04:34.773Z,16.20
2024-02-11T11:07:21.341Z,16.20
2024-02-11T11:10:12.100Z,16.20
2024-02-11T11:12:59.590Z,16.20
2024-02-11T11:15:45.129Z,16.20
2024-02-11T11:18:34.894Z,16.20
2024-02-11T11:21:21.680Z,16.20
2024-02-11T11:24:09.348Z,16.20
2024-02-11T11:26:56.812Z,16.10
2024-02-11T11:29:41.877Z,16.10
2024-02-11T11:32:27.584Z,16.10
2024-02-11T11:35:14.744Z,16.00
2024-02-11T11:38:04.010Z,16.00
2024-02-11T11:40:51.638Z,15.90
2024-02-11T11:43:37.547Z,15.90
2024-02-11T11:46:24.376Z,16.00
2024-02-11T11:49:10.023Z,15.90
2024-02-11T11:51:56.355Z,15.90
2024-02-11T11:54:41.911Z,15.90
2024-02-11T11:57:30.008Z,15.90
2024-02-11T12:00:17.666Z,15.90
2024-02-11T12:03:02.946Z,15.90
2024-02-11T12:05:48.949Z,15.90
2024-02-11T12:08:37.360Z,15.90
2024-02-11T12:11:24.340Z,15.90
2024-02-11T12:14:12.101Z,15.90
2024-02-11T12:16:57.925Z,15.90
2024-02-11T12:19:43.632Z,15.90
2024-02-11T12:22:28.817Z,15.90
2024-02-11T12:25:21.731Z,15.90
2024-02-11T12:28:07.580Z,15.90
2024-02-11T12:30:52.889Z,16.00
2024-02-11T12:33:39.762Z,15.90
2024-02-11T12:36:29.311Z,15.90
2024-02-11T12:39:14.767Z,16.00
2024-02-11T12:42:01.169Z,15.90
2024-02-11T12:44:47.285Z,15.90
2024-02-11T12:47:32.726Z,16.00
2024-02-11T12:50:21.320Z,16.00
2024-02-11T12:53:06.932Z,15.90
2024-02-11T12:55:52.487Z,15.90
2024-02-11T12:58:38.781Z,16.00
2024-02-11T13:01:26.405Z,15.90
2024-02-11T13:04:11.704Z,15.90
2024-02-11T13:06:57.118Z,15.90
2024-02-11T13:09:43.160Z,15.90
2024-02-11T13:12:28.552Z,15.90
2024-02-11T13:15:14.102Z,15.90
2024-02-11T13:18:00.131Z,16.00
2024-02-11T13:20:46.289Z,15.90
2024-02-11T13:23:31.565Z,15.90
2024-02-11T13:26:17.415Z,15.90
2024-02-11T13:29:04.189Z,16.00
2024-02-11T13:31:50.551Z,16.00
2024-02-11T13:34:36.734Z,16.00
2024-02-11T13:37:22.196Z,15.90
2024-02-11T13:40:13.110Z,16.00
2024-02-11T13:42:59.050Z,16.00
2024-02-11T13:45:44.420Z,16.00
2024-02-11T13:48:29.844Z,16.00
2024-02-11T13:51:15.779Z,16.00
2024-02-11T13:54:02.466Z,16.00
2024-02-11T13:56:48.765Z,16.00
2024-02-11T13:59:34.584Z,16.00
2024-02-11T14:02:20.373Z,16.00
2024-02-11T14:05:05.720Z,16.00
2024-02-11T14:07:51.525Z,16.10
2024-02-11T14:10:36.804Z,16.10
2024-02-11T14:13:23.379Z,16.10
2024-02-11T14:16:09.844Z,16.20
2024-02-11T14:18:55.619Z,16.20
2024-02-11T14:21:48.361Z,16.20
2024-02-11T14:24:34.021Z,16.30
2024-02-11T14:27:19.795Z,16.30
2024-02-11T14:30:05.517Z,16.30
2024-02-11T14:32:52.283Z,16.30
2024-02-11T14:35:39.697Z,16.30
2024-02-11T14:38:25.082Z,16.30
2024-02-11T14:41:11.017Z,16.30
2024-02-11T14:43:56.453Z,16.20
2024-02-11T14:46:42.151Z,16.20
2024-02-11T14:49:27.871Z,16.10
2024-02-11T14:52:15.278Z,16.10
2024-02-11T14:55:01.918Z,16.10
2024-02-11T14:57:48.030Z,16.10
2024-02-11T15:00:33.568Z,16.00
2024-02-11T15:03:19.032Z,16.10
2024-02-11T15:06:05.354Z,16.00
2024-02-11T15:08:50.971Z,16.00
2024-02-11T15:11:37.136Z,16.00
2024-02-11T15:14:22.922Z,16.00
2024-02-11T15:17:08.600Z,16.00
2024-02-11T15:19:53.914Z,16.00
2024-02-11T15:22:43.188Z,17.70
2024-02-11T15:25:28.608Z,16.00
2024-02-11T15:28:13.748Z,16.00
2024-02-11T15:30:58.989Z,16.00
2024-02-11T15:33:44.421Z,15.90
2024-02-11T15:36:30.081Z,15.90
2024-02-11T15:39:20.202Z,15.90
2024-02-11T15:42:07.860Z,15.90
2024-02-11T15:44:53.361Z,16.00
2024-02-11T15:47:38.976Z,15.90
2024-02-11T15:50:25.143Z,15.90
2024-02-11T15:53:10.843Z,15.90
2024-02-11T15:55:57.025Z,15.90
2024-02-11T15:58:42.309Z,15.90
2024-02-11T16:01:28.127Z,15.90
2024-02-11T16:04:13.960Z,15.90
2024-02-11T16:07:02.005Z,15.80
2024-02-11T16:09:48.565Z,15.80
2024-02-11T16:12:35.010Z,15.80
2024-02-11T16:15:21.158Z,15.80
2024-02-11T16:18:06.602Z,15.80
2024-02-11T16:20:52.082Z,15.80
2024-02-11T16:23:37.687Z,15.80
2024-02-11T16:26:25.493Z,15.80
2024-02-11T16:29:11.461Z,15.80
2024-02-11T16:31:57.314Z,15.80
2024-02-11T16:34:45.256Z,15.80
2024-02-11T16:37:30.705Z,15.80
2024-02-11T16:40:20.183Z,15.80
2024-02-11T16:43:05.911Z,15.70
2024-02-11T16:45:51.735Z,15.80
2024-02-11T16:48:37.271Z,15.70
2024-02-11T16:51:23.318Z,15.70
2024-02-11T16:54:08.738Z,15.70
2024-02-11T16:56:55.427Z,15.70
2024-02-11T16:59:42.557Z,15.70
2024-02-11T17:02:28.592Z,15.70
2024-02-11T17:05:14.401Z,15.70
2024-02-11T17:08:00.071Z,15.70
2024-02-11T17:10:45.787Z,15.70
2024-02-11T17:13:32.608Z,15.60
2024-02-11T17:16:17.780Z,15.70
2024-02-11T17:19:05.115Z,15.60
2024-02-11T17:21:50.621Z,15.70
2024-02-11T17:24:35.834Z,15.70
2024-02-11T17:27:23.151Z,15.60
2024-02-11T17:30:08.375Z,15.60
2024-02-11T17:32:59.588Z,15.60
2024-02-11T17:35:46.411Z,15.60
2024-02-11T17:38:32.634Z,15.60
2024-02-11T17:41:20.785Z,15.70
2024-02-11T17:44:14.044Z,15.60
2024-02-11T17:47:00.797Z,15.60
2024-02-11T17:49:47.830Z,17.00
2024-02-11T17:52:37.164Z,15.60
2024-02-11T17:55:22.259Z,15.60
2024-02-11T17:58:08.316Z,15.60
2024-02-11T18:00:57.735Z,15.60
2024-02-11T18:03:44.559Z,15.60
2024-02-11T18:06:31.661Z,15.60
2024-02-11T18:09:17.742Z,15.60
2024-02-11T18:12:02.929Z,15.60
2024-02-11T18:14:48.066Z,15.60
2024-02-11T18:17:35.265Z,15.50
2024-02-11T18:20:21.416Z,15.60
2024-02-11T18:23:09.444Z,15.50
2024-02-11T18:28:46.861Z,15.50
2024-02-11T18:31:32.750Z,15.60
2024-02-11T18:34:18.413Z,15.60
2024-02-11T18:37:03.974Z,15.50
2024-02-11T18:39:52.457Z,15.60
2024-02-11T18:42:39.812Z,15.50
2024-02-11T18:45:25.597Z,15.50
2024-02-11T18:48:11.292Z,15.50
2024-02-11T18:50:56.934Z,15.50
2024-02-11T18:53:42.791Z,15.50
2024-02-11T18:56:28.486Z,15.50
2024-02-11T18:59:13.879Z,15.50
2024-02-11T19:01:59.508Z,15.50
2024-02-11T19:04:44.633Z,15.50
2024-02-11T19:07:30.135Z,15.50
2024-02-11T19:10:19.308Z,15.50
2024-02-11T19:13:05.767Z,15.50
2024-02-11T19:15:51.810Z,15.50
2024-02-11T19:18:37.850Z,15.50
2024-02-11T19:21:23.592Z,15.50
2024-02-11T19:24:09.530Z,15.50
2024-02-11T19:26:54.884Z,15.50
2024-02-11T19:29:41.428Z,15.50
2024-02-11T19:32:26.780Z,15.50
2024-02-11T19:35:12.446Z,15.50
2024-02-11T19:37:58.126Z,15.50
2024-02-11T19:40:44.547Z,15.50
2024-02-11T19:43:30.656Z,15.50
2024-02-11T19:46:17.339Z,15.50
2024-02-11T19:49:02.716Z,15.50
2024-02-11T19:51:48.226Z,15.50
2024-02-11T19:54:34.430Z,15.50
2024-02-11T19:57:22.338Z,15.50
2024-02-11T20:00:16.988Z,15.50
2024-02-11T20:03:03.664Z,15.50
2024-02-11T20:05:49.147Z,15.40
2024-02-11T20:08:35.557Z,15.40
2024-02-11T20:11:27.893Z,15.40
2024-02-11T20:14:17.019Z,15.40
2024-02-11T20:17:02.410Z,15.40
2024-02-11T20:19:48.243Z,15.40
2024-02-11T20:22:33.990Z,15.40
2024-02-11T20:25:19.165Z,15.40
2024-02-11T20:28:06.402Z,15.50
2024-02-11T20:30:53.478Z,15.40
2024-02-11T20:33:39.286Z,15.40
2024-02-11T20:36:25.764Z,15.40
2024-02-11T20:39:11.862Z,15.40
2024-02-11T20:41:57.731Z,15.40
2024-02-11T20:44:44.745Z,15.40
2024-02-11T20:47:31.001Z,15.40
2024-02-11T20:50:16.659Z,15.40
2024-02-11T20:53:03.166Z,15.40
2024-02-11T20:55:48.843Z,15.40
2024-02-11T20:58:34.789Z,15.40
2024-02-11T21:01:20.444Z,15.40
2024-02-11T21:04:08.866Z,15.30
2024-02-11T21:06:54.443Z,15.40
2024-02-11T21:09:40.619Z,15.40
2024-02-11T21:12:28.346Z,15.40
2024-02-11T21:15:16.094Z,15.40
2024-02-11T21:18:03.545Z,15.40
2024-02-11T21:20:49.239Z,15.30
2024-02-11T21:23:35.351Z,15.40
2024-02-11T21:26:21.206Z,15.40
2024-02-11T21:29:07.359Z,15.30
2024-02-11T21:31:52.834Z,15.30
2024-02-11T21:34:38.465Z,15.30
2024-02-11T21:37:23.724Z,15.40
2024-02-11T21:40:12.250Z,15.30
2024-02-11T21:42:58.248Z,15.30
2024-02-11T21:45:43.599Z,15.30
2024-02-11T21:48:29.302Z,15.30
2024-02-11T21:51:14.462Z,15.30
2024-02-11T21:53:59.759Z,15.30
2024-02-11T21:56:45.151Z,15.30
2024-02-11T21:59:31.695Z,15.30
2024-02-11T22:02:17.075Z,15.30
2024-02-11T22:05:05.277Z,15.30
2024-02-11T22:07:50.866Z,15.30
2024-02-11T22:10:35.991Z,15.30
2024-02-11T22:13:21.738Z,15.30
2024-02-11T22:16:09.087Z,15.30
2024-02-11T22:18:54.869Z,15.30
2024-02-11T22:21:40.669Z,15.20
2024-02-11T22:24:25.996Z,15.30
2024-02-11T22:27:12.298Z,15.30
2024-02-11T22:30:00.645Z,15.30
2024-02-11T22:32:46.332Z,15.30
2024-02-11T22:35:31.777Z,15.30
2024-02-11T22:38:17.972Z,15.30
2024-02-11T22:41:08.056Z,15.30
2024-02-11T22:43:53.438Z,15.30
2024-02-11T22:46:38.667Z,15.30
2024-02-11T22:49:24.083Z,15.30
2024-02-11T22:52:09.692Z,15.30
2024-02-11T22:54:56.055Z,15.30
2024-02-11T22:57:41.542Z,15.30
2024-02-11T23:00:27.302Z,15.30
2024-02-11T23:03:13.416Z,15.30
2024-02-11T23:05:59.168Z,15.20
2024-02-11T23:08:44.607Z,15.20
2024-02-11T23:11:30.300Z,15.20
2024-02-11T23:14:16.033Z,15.20
2024-02-11T23:17:01.378Z,15.20
2024-02-11T23:19:46.549Z,15.20
2024-02-11T23:22:31.981Z,15.20
2024-02-11T23:25:18.195Z,15.20
2024-02-11T23:28:05.982Z,15.20
2024-02-11T23:30:51.504Z,15.20
2024-02-11T23:33:38.611Z,15.20
2024-02-11T23:36:27.349Z,15.20
2024-02-11T23:39:13.192Z,15.20
2024-02-11T23:41:59.514Z,15.20
2024-02-11T23:44:50.070Z,15.20
2024-02-11T23:47:36.916Z,15.20
2024-02-11T23:50:22.439Z,15.20
2024-02-11T23:53:08.325Z,15.20
2024-02-11T23:55:54.391Z,15.20
2024-02-11T23:58:39.923Z,15.20
